Content
SEND FEEDBACK

Canada Flag

MONTREAL, QUEBEC


Home > North America > Canada > Quebec
Elevation: 35 meters     Latitude: 45 28N     Longitude: 073 45W

WEATHER
 
SELECT A DAY
Number of Records: 218,660;   Date Range: 1/1/95 - 3/22/16
 
SHARE

PRINT THIS DATA

[ ← Previous Day ]
WEATHER ALMANAC - 4 OCTOBER, 2013
[ Next Day → ]
[ °F ]   °C
We're sorry. There is no daily almanac available for Montreal, Quebec on 4 October, 2013.
WEATHER BY HOUR - 4 OCTOBER, 2013
[ °F ]   °C
Local TimeTemperatureDewpointHumidityBarometerVisibilityWind DirectionWind SpeedGust SpeedPrecipitationEventsConditions
2:00 AM15 °C11.7 °C75 %1017.9 hPa24.1 kmWSW (250°)9.3 km/hOvercast
2:00 AM15 °C12 °C82 %1017.6 hPa24.1 kmWest (260°)9.3 km/hOvercast
3:00 AM15 °C11 °C77 %1017.6 hPa24.1 kmSW (230°)5.6 km/hRainLight Rain Showers
3:34 AM15 °C12 °C82 %1017.9 hPa24.1 kmCalmOvercast
4:00 AM15 °C12 °C82 %1017.9 hPa24.1 kmNNE (20°)3.7 km/hOvercast
5:00 AM14 °C12 °C88 %1018.6 hPa24.1 kmCalmOvercast
6:00 AM15 °C8 °C63 %1019 hPa24.1 kmNNE (30°)22.2 km/hOvercast
7:00 AM14 °C8 °C67 %1019.6 hPa48.3 kmNE (40°)13 km/hOvercast
8:00 AM15 °C7.8 °C52 %1020 hPa45.1 kmNE (50°)18.5 km/hPartly Cloudy
8:00 AM15 °C8 °C63 %1020 hPa48.3 kmNE (50°)16.7 km/hOvercast
9:00 AM15 °C8 °C63 %1020.7 hPa48.3 kmNE (50°)24.1 km/hMostly Cloudy
10:00 AM15 °C7 °C59 %1020.7 hPa48.3 kmENE (60°)20.4 km/hMostly Cloudy
10:50 AM15 °C7 °C59 %1020.7 hPa24.1 kmNE (50°)18.5 km/hRainLight Rain Showers
11:00 AM15 °C9 °C67 %1020.7 hPa24.1 kmNE (40°)13 km/hRainLight Rain Showers
12:00 PM16 °C8 °C59 %1020.3 hPa24.1 kmNE (50°)14.8 km/hRainLight Rain Showers
12:27 PM16 °C7 °C55 %1020 hPa24.1 kmNE (40°)20.4 km/hOvercast
1:00 PM17 °C7 °C52 %1020 hPa24.1 kmNE (50°)14.8 km/hOvercast
2:00 PM17.2 °C5.6 °C35 %1019.6 hPa45.1 kmENE (60°)18.5 km/hPartly Cloudy
2:00 PM17 °C6 °C48 %1019.3 hPa48.3 kmENE (60°)18.5 km/hOvercast
3:00 PM16 °C6 °C52 %1019.3 hPa24.1 kmNE (50°)13 km/hOvercast
4:00 PM16 °C8 °C59 %1019 hPa24.1 kmNNE (30°)18.5 km/hMostly Cloudy
5:00 PM16 °C7 °C55 %1019 hPa24.1 kmNNE (20°)18.5 km/hMostly Cloudy
6:00 PM15 °C6 °C55 %1019.3 hPa24.1 kmNNE (20°)13 km/hMostly Cloudy
7:00 PM15 °C5 °C51 %1019.6 hPa24.1 kmNNE (20°)11.1 km/hMostly Cloudy
8:00 PM14.4 °C6.7 °C49 %1020 hPa24.1 kmNNE (30°)9.3 km/hMostly Cloudy
8:00 PM14 °C7 °C63 %1019.6 hPa24.1 kmNNE (20°)11.1 km/hMostly Cloudy
9:00 PM15 °C6 °C55 %1019.6 hPa24.1 kmEast (100°)9.3 km/hMostly Cloudy
10:00 PM13 °C5 °C58 %1020 hPa24.1 kmEast (80°)7.4 km/hMostly Cloudy
11:00 PM14 °C3 °C48 %1020 hPa24.1 kmEast (80°)9.3 km/hOvercast
Hourly data recorded from CYUL, located 0 kilometers away from Montreal, Quebec




STORIES FROM OUR PARTNERS